Time;durP1;ratioP1;P1;durP2;ratioP2;P2;SDS_P1;SDS_P2;PMS_P1;PMS_P2;Temp;Humidity;BMP_temperature;BMP_pressure;BME280_temperature;BME280_humidity;BME280_pressure;Samples;Min_cycle;Max_cycle;Signal;HPM_P1;HPM_P2
2023/06/01 00:01:55;;;;;;;20.95;14.75;;;28.70;99.90;;;;;;1821069;78;21587;-80
2023/06/01 00:04:26;;;;;;;17.62;14.90;;;28.70;99.90;;;;;;1816352;78;21559;-81
2023/06/01 00:07:01;;;;;;;22.22;14.53;;;28.70;99.90;;;;;;1815063;78;21669;-82
2023/06/01 00:09:30;;;;;;;18.65;14.33;;;28.70;99.90;;;;;;1821373;78;21146;-81
2023/06/01 00:12:02;;;;;;;14.78;12.55;;;28.70;99.90;;;;;;1826620;77;21162;-81
2023/06/01 00:14:33;;;;;;;21.20;14.55;;;28.70;99.90;;;;;;1828917;78;21487;-83
2023/06/01 00:17:05;;;;;;;16.20;14.03;;;28.80;99.90;;;;;;1821693;78;21118;-80
2023/06/01 00:19:38;;;;;;;19.05;14.13;;;28.80;99.90;;;;;;1825007;78;21614;-76
2023/06/01 00:22:09;;;;;;;17.73;14.55;;;28.80;99.90;;;;;;1787188;78;21133;-75
2023/06/01 00:24:40;;;;;;;21.50;14.53;;;28.80;99.90;;;;;;1821154;78;21190;-74
2023/06/01 00:27:14;;;;;;;20.23;12.88;;;28.80;99.90;;;;;;1822157;78;21150;-75
2023/06/01 00:29:46;;;;;;;45.23;15.03;;;28.90;99.90;;;;;;1822210;78;21181;-76
2023/06/01 00:32:18;;;;;;;19.37;13.50;;;28.90;99.90;;;;;;1820303;77;21138;-74
2023/06/01 00:34:49;;;;;;;14.90;12.80;;;29.00;99.90;;;;;;1826672;78;21161;-73
2023/06/01 00:37:23;;;;;;;17.30;12.58;;;29.10;99.90;;;;;;1819733;78;21220;-73
2023/06/01 00:39:55;;;;;;;17.48;12.23;;;29.10;99.90;;;;;;1818895;78;21170;-73
2023/06/01 00:42:27;;;;;;;17.57;11.75;;;29.10;99.90;;;;;;1820934;78;21250;-72
2023/06/01 00:44:58;;;;;;;20.08;12.23;;;29.20;99.90;;;;;;1823950;78;21162;-76
2023/06/01 00:47:30;;;;;;;17.05;12.10;;;29.20;99.90;;;;;;1825932;78;21672;-77
2023/06/01 00:50:02;;;;;;;19.40;12.30;;;29.30;99.90;;;;;;1830085;78;21166;-75
2023/06/01 00:52:33;;;;;;;23.02;13.90;;;29.30;99.90;;;;;;1835029;76;21178;-76
2023/06/01 00:55:06;;;;;;;17.90;12.37;;;29.40;99.90;;;;;;1878552;75;21202;-75
2023/06/01 00:57:38;;;;;;;19.12;13.43;;;29.50;99.90;;;;;;1874816;76;21288;-75
2023/06/01 01:00:11;;;;;;;18.23;13.43;;;29.60;99.90;;;;;;1878190;75;21158;-72
2023/06/01 01:02:48;;;;;;;20.52;12.95;;;29.60;99.90;;;;;;1867376;76;21131;-76
2023/06/01 01:05:19;;;;;;;21.60;11.95;;;29.70;99.90;;;;;;1867690;76;21127;-74
2023/06/01 01:07:58;;;;;;;19.32;12.18;;;29.70;99.90;;;;;;1878721;75;21212;-75
2023/06/01 01:10:39;;;;;;;13.90;11.00;;;29.80;99.90;;;;;;1871650;76;21193;-73
2023/06/01 01:13:16;;;;;;;16.32;11.38;;;29.90;99.90;;;;;;1874221;75;21126;-76
2023/06/01 01:15:47;;;;;;;;;;;29.90;99.90;;;;;;1873353;76;21159;-77
2023/06/01 01:18:24;;;;;;;14.63;10.45;;;30.00;99.90;;;;;;1869611;76;20197;-78
2023/06/01 01:20:58;;;;;;;17.30;9.70;;;30.00;99.90;;;;;;1870564;75;21679;-79
2023/06/01 01:23:51;;;;;;;17.15;10.75;;;30.10;99.90;;;;;;1872262;75;21185;-77
2023/06/01 01:26:47;;;;;;;16.37;11.30;;;30.20;99.90;;;;;;1877506;76;21120;-78
2023/06/01 01:29:21;;;;;;;16.10;10.72;;;30.30;99.90;;;;;;1876956;75;21131;-82
2023/06/01 01:31:53;;;;;;;14.10;9.33;;;30.40;99.90;;;;;;1865182;76;21350;-83
2023/06/01 01:34:27;;;;;;;39.50;12.55;;;30.50;99.90;;;;;;1880091;75;21209;-83
2023/06/01 01:36:58;;;;;;;52.45;12.75;;;30.60;99.90;;;;;;1884875;76;21533;-83
2023/06/01 01:39:40;;;;;;;14.15;9.78;;;30.70;99.90;;;;;;1876082;75;21666;-82
2023/06/01 01:42:10;;;;;;;13.88;9.63;;;30.70;99.90;;;;;;1882227;76;21160;-86
2023/06/01 01:44:42;;;;;;;12.70;8.78;;;30.80;99.90;;;;;;1880974;75;21154;-83
2023/06/01 01:47:25;;;;;;;27.67;13.00;;;30.90;99.90;;;;;;1869303;76;21104;-84
2023/06/01 01:49:59;;;;;;;24.37;10.05;;;31.00;99.90;;;;;;1876238;75;21103;-84
2023/06/01 01:52:38;;;;;;;17.07;8.83;;;31.20;99.90;;;;;;1869053;76;21107;-86
2023/06/01 01:55:10;;;;;;;32.73;10.53;;;31.30;99.90;;;;;;1855563;77;21218;-84
2023/06/01 01:57:42;;;;;;;15.45;9.38;;;31.40;99.90;;;;;;1848689;77;21147;-83
2023/06/01 02:00:14;;;;;;;14.85;8.95;;;31.50;99.90;;;;;;1790605;79;21119;-86
2023/06/01 02:02:47;;;;;;;16.17;10.95;;;31.60;99.90;;;;;;1857240;77;21249;-83
2023/06/01 02:05:19;;;;;;;14.40;8.00;;;31.70;99.90;;;;;;1855923;77;21120;-84
2023/06/01 02:07:50;;;;;;;9.60;7.62;;;31.90;99.90;;;;;;1855254;77;21168;-84
2023/06/01 02:10:21;;;;;;;14.10;7.65;;;31.90;99.90;;;;;;1860573;77;21128;-84
2023/06/01 02:12:53;;;;;;;10.90;7.70;;;32.00;99.90;;;;;;1854396;77;21627;-84
2023/06/01 02:15:42;;;;;;;20.65;8.95;;;32.10;99.90;;;;;;1850635;77;21110;-84
2023/06/01 02:18:15;;;;;;;18.20;7.95;;;32.20;99.60;;;;;;1796722;78;21055;-84
2023/06/01 02:20:50;;;;;;;15.58;8.60;;;32.30;99.10;;;;;;1793744;79;21220;-83
2023/06/01 02:23:19;;;;;;;20.52;9.13;;;32.30;99.30;;;;;;1797751;78;21268;-83
2023/06/01 02:26:03;;;;;;;13.22;7.35;;;32.40;99.10;;;;;;1860364;77;21172;-84
2023/06/01 02:29:32;;;;;;;10.43;7.37;;;32.50;98.90;;;;;;1761998;79;21176;-84
2023/06/01 02:31:38;;;;;;;10.68;7.92;;;32.60;99.00;;;;;;1757113;80;21697;-82
2023/06/01 02:34:23;;;;;;;9.38;7.53;;;32.70;98.70;;;;;;1786581;76;21616;-84
2023/06/01 02:37:01;;;;;;;11.90;7.62;;;32.80;99.20;;;;;;1858636;76;21209;-82
2023/06/01 02:39:38;;;;;;;9.83;7.03;;;32.80;98.40;;;;;;1864852;77;21207;-84
2023/06/01 02:42:31;;;;;;;12.90;7.15;;;32.90;98.30;;;;;;1851626;77;21148;-84
2023/06/01 02:48:39;;;;;;;;;;;;;;;;;;;;;
2023/06/01 02:51:10;;;;;;;10.68;7.50;;;33.10;98.00;;;;;;1828437;76;21120;-85
2023/06/01 02:54:07;;;;;;;12.40;7.35;;;33.20;97.70;;;;;;1851401;76;21700;-85
2023/06/01 03:00:21;;;;;;;12.18;7.58;;;33.30;97.10;;;;;;1850575;76;21147;-84
2023/06/01 03:02:52;;;;;;;16.00;8.00;;;33.40;97.00;;;;;;1863181;76;21242;-84
2023/06/01 03:05:24;;;;;;;9.55;7.10;;;33.40;97.10;;;;;;1873171;76;21124;-84
2023/06/01 03:07:57;;;;;;;10.10;7.20;;;33.50;96.80;;;;;;1862030;76;21835;-84
2023/06/01 03:10:29;;;;;;;7.83;6.25;;;33.50;95.90;;;;;;1866765;76;21507;-84
2023/06/01 03:13:06;;;;;;;10.43;6.90;;;33.60;95.30;;;;;;1870851;76;21115;-85
2023/06/01 03:15:34;;;;;;;10.32;6.50;;;33.60;95.80;;;;;;1866001;76;21130;-84
2023/06/01 03:18:11;;;;;;;14.63;7.15;;;33.70;95.50;;;;;;1871942;76;21151;-83
2023/06/01 03:20:43;;;;;;;9.15;6.85;;;33.70;95.70;;;;;;1857824;76;21131;-84
2023/06/01 03:23:14;;;;;;;8.13;5.95;;;33.80;96.40;;;;;;1862753;76;21143;-83
2023/06/01 03:25:46;;;;;;;8.10;5.78;;;33.90;95.30;;;;;;1854309;76;21205;-84
2023/06/01 03:28:17;;;;;;;8.38;5.85;;;34.00;94.30;;;;;;1862111;76;21180;-85
2023/06/01 03:30:49;;;;;;;11.15;6.10;;;34.00;95.00;;;;;;1867304;76;21084;-84
2023/06/01 03:33:20;;;;;;;14.58;6.35;;;34.00;94.60;;;;;;1867566;76;21163;-84
2023/06/01 03:35:51;;;;;;;8.45;5.87;;;34.00;94.70;;;;;;1874729;76;21222;-84
2023/06/01 03:38:23;;;;;;;10.32;5.87;;;34.00;94.40;;;;;;1868509;76;21179;-82
2023/06/01 03:40:54;;;;;;;14.87;6.47;;;34.10;94.60;;;;;;1860301;76;21052;-85
2023/06/01 03:43:25;;;;;;;7.83;5.92;;;34.20;94.30;;;;;;1868322;76;21202;-84
2023/06/01 03:45:57;;;;;;;9.13;5.92;;;34.30;94.40;;;;;;1866626;76;21663;-83
2023/06/01 03:48:28;;;;;;;8.98;5.97;;;34.30;94.30;;;;;;1869295;76;21123;-85
2023/06/01 03:50:59;;;;;;;10.00;6.35;;;34.30;93.60;;;;;;1865718;76;21182;-84
2023/06/01 03:53:31;;;;;;;10.48;5.05;;;34.40;94.20;;;;;;1862724;76;21127;-83
2023/06/01 03:56:03;;;;;;;8.25;5.60;;;34.40;93.30;;;;;;1859174;77;21167;-83
2023/06/01 03:58:34;;;;;;;8.85;6.53;;;34.30;93.80;;;;;;1857662;77;21530;-86
2023/06/01 04:01:06;;;;;;;13.22;6.90;;;34.30;94.30;;;;;;1859512;77;21257;-85
2023/06/01 04:03:37;;;;;;;26.33;7.80;;;34.40;94.60;;;;;;1855473;77;21143;-86
2023/06/01 04:06:17;;;;;;;18.12;7.45;;;34.40;94.70;;;;;;1857987;77;21202;-85
2023/06/01 04:08:49;;;;;;;9.33;6.12;;;34.50;94.50;;;;;;1853212;77;21132;-86
2023/06/01 04:11:20;;;;;;;7.62;5.58;;;34.70;93.50;;;;;;1855891;77;21218;-85
2023/06/01 04:13:51;;;;;;;9.18;5.60;;;34.70;93.50;;;;;;1853256;77;21155;-84
2023/06/01 04:16:24;;;;;;;12.45;6.35;;;34.70;94.00;;;;;;1858758;77;21156;-85
2023/06/01 04:18:55;;;;;;;15.28;7.50;;;34.70;94.00;;;;;;1853549;77;21193;-84
2023/06/01 04:21:27;;;;;;;12.68;6.40;;;34.80;93.70;;;;;;1858345;77;21179;-85
2023/06/01 04:23:58;;;;;;;14.10;6.33;;;34.70;93.60;;;;;;1855939;77;21173;-85
2023/06/01 04:26:31;;;;;;;14.40;6.40;;;34.90;92.90;;;;;;1851116;77;21144;-87
2023/06/01 04:29:02;;;;;;;13.83;5.83;;;34.90;93.70;;;;;;1851449;77;21187;-86
2023/06/01 04:31:34;;;;;;;10.03;5.83;;;35.00;93.40;;;;;;1854309;76;21136;-83
2023/06/01 04:34:05;;;;;;;8.90;6.17;;;35.10;92.30;;;;;;1853630;77;21199;-86
2023/06/01 04:36:42;;;;;;;9.85;6.30;;;35.20;92.20;;;;;;1854820;77;21094;-86
2023/06/01 04:39:11;;;;;;;13.48;6.00;;;35.30;92.70;;;;;;1853020;76;21205;-86
2023/06/01 04:41:43;;;;;;;8.05;5.25;;;35.40;92.40;;;;;;1852115;77;21600;-84
2023/06/01 04:44:18;;;;;;;9.65;6.10;;;35.50;92.90;;;;;;1854817;76;21120;-85
2023/06/01 04:46:51;;;;;;;9.75;5.35;;;35.50;91.00;;;;;;1860595;77;21610;-84
2023/06/01 04:49:22;;;;;;;14.53;6.53;;;35.40;91.30;;;;;;1849181;77;21126;-82
2023/06/01 04:51:54;;;;;;;8.18;5.87;;;35.40;92.10;;;;;;1847102;77;21271;-84
2023/06/01 04:54:39;;;;;;;9.50;6.12;;;35.40;92.40;;;;;;1848196;76;21193;-83
2023/06/01 04:57:06;;;;;;;9.93;6.10;;;35.40;92.00;;;;;;1841568;76;21141;-84
2023/06/01 04:59:46;;;;;;;11.55;6.00;;;35.50;92.00;;;;;;1873962;75;21645;-84
2023/06/01 05:02:24;;;;;;;6.72;5.92;;;35.50;92.30;;;;;;1860691;76;21171;-84
2023/06/01 05:04:57;;;;;;;8.83;5.75;;;35.60;92.40;;;;;;1869330;75;21171;-85
2023/06/01 05:07:30;;;;;;;10.00;6.00;;;35.70;91.30;;;;;;1881142;76;21088;-85
2023/06/01 05:10:05;;;;;;;12.85;6.22;;;35.70;91.10;;;;;;1878583;75;21203;-85
2023/06/01 05:12:35;;;;;;;8.13;6.00;;;35.80;91.40;;;;;;1872780;76;21278;-85
2023/06/01 05:15:09;;;;;;;9.78;5.67;;;35.90;91.80;;;;;;1877423;75;21127;-84
2023/06/01 05:17:40;;;;;;;7.90;5.55;;;36.00;90.70;;;;;;1868957;76;21132;-85
2023/06/01 05:20:13;;;;;;;7.78;5.83;;;35.90;90.80;;;;;;1882535;75;21134;-83
2023/06/01 05:22:44;;;;;;;11.00;5.95;;;35.80;91.10;;;;;;1872017;76;21237;-84
2023/06/01 05:25:16;;;;;;;8.20;6.28;;;35.80;90.50;;;;;;1882178;75;21198;-84
2023/06/01 05:27:48;;;;;;;9.15;6.47;;;35.70;90.00;;;;;;1873181;76;21435;-85
2023/06/01 05:30:19;;;;;;;7.22;4.87;;;35.60;90.70;;;;;;1877814;75;21177;-84
2023/06/01 05:32:50;;;;;;;8.30;5.37;;;35.60;88.50;;;;;;1859923;76;21632;-86
2023/06/01 05:35:22;;;;;;;8.38;4.55;;;35.60;88.80;;;;;;1865657;75;21125;-84
2023/06/01 05:37:53;;;;;;;9.80;5.50;;;35.70;86.90;;;;;;1871620;76;21235;-84
2023/06/01 05:40:25;;;;;;;7.45;5.50;;;35.80;88.50;;;;;;1882493;75;21135;-84
2023/06/01 05:42:56;;;;;;;8.83;6.00;;;35.80;90.00;;;;;;1861096;76;21151;-83
2023/06/01 05:45:27;;;;;;;7.62;6.30;;;35.70;90.30;;;;;;1883830;75;21314;-84
2023/06/01 05:47:59;;;;;;;7.87;5.42;;;35.70;90.70;;;;;;1869647;76;21227;-83
2023/06/01 05:50:30;;;;;;;10.68;5.70;;;35.80;90.20;;;;;;1869973;75;21468;-83
2023/06/01 05:53:02;;;;;;;12.33;5.85;;;35.80;90.00;;;;;;1865967;76;21143;-84
2023/06/01 05:55:36;;;;;;;9.75;5.72;;;35.80;89.70;;;;;;1866901;75;21293;-82
2023/06/01 05:58:08;;;;;;;6.58;5.03;;;35.90;89.10;;;;;;1868398;76;21225;-83
2023/06/01 06:00:39;;;;;;;7.05;5.37;;;36.00;86.70;;;;;;1865325;76;21128;-82
2023/06/01 06:03:11;;;;;;;12.68;6.03;;;36.10;87.40;;;;;;1859536;76;21134;-83
2023/06/01 06:05:42;;;;;;;8.95;5.35;;;36.10;87.70;;;;;;1867270;76;21086;-84
2023/06/01 06:08:14;;;;;;;6.97;5.22;;;36.10;88.20;;;;;;1867860;76;21131;-83
2023/06/01 06:10:45;;;;;;;9.90;6.20;;;36.10;87.30;;;;;;1868189;76;21193;-85
2023/06/01 06:13:16;;;;;;;10.75;6.00;;;36.10;88.30;;;;;;1859648;76;21546;-84
2023/06/01 06:15:47;;;;;;;15.20;7.53;;;36.10;88.60;;;;;;1876759;76;21080;-83
2023/06/01 06:18:19;;;;;;;10.08;6.50;;;36.00;89.40;;;;;;1868393;76;21155;-84
2023/06/01 06:20:50;;;;;;;13.13;6.20;;;36.10;88.90;;;;;;1868229;76;21155;-84
2023/06/01 06:23:22;;;;;;;13.08;6.40;;;36.10;87.20;;;;;;1869009;76;21100;-83
2023/06/01 06:25:53;;;;;;;7.10;5.85;;;36.10;88.20;;;;;;1865224;76;21112;-83
2023/06/01 06:28:24;;;;;;;17.07;7.17;;;36.10;87.20;;;;;;1854453;76;21191;-83
2023/06/01 06:30:56;;;;;;;18.98;6.12;;;36.10;88.00;;;;;;1863728;76;21193;-82
2023/06/01 06:33:28;;;;;;;12.53;6.50;;;35.90;87.60;;;;;;1880013;76;21069;-83
2023/06/01 06:35:59;;;;;;;12.73;6.28;;;35.80;88.00;;;;;;1860839;76;21214;-84
2023/06/01 06:38:33;;;;;;;9.48;6.20;;;35.60;90.00;;;;;;1871634;76;21201;-83
2023/06/01 06:41:05;;;;;;;12.20;6.62;;;35.40;90.30;;;;;;1864743;76;21671;-83
2023/06/01 06:43:37;;;;;;;16.12;7.08;;;35.40;90.80;;;;;;1860084;76;21592;-86
2023/06/01 06:46:09;;;;;;;19.20;7.42;;;35.40;91.00;;;;;;1863426;76;21178;-85
2023/06/01 06:48:40;;;;;;;10.38;6.05;;;35.40;91.00;;;;;;1858576;76;21155;-85
2023/06/01 06:51:14;;;;;;;20.52;7.78;;;35.40;90.80;;;;;;1865179;76;21182;-84
2023/06/01 06:53:45;;;;;;;17.98;7.80;;;35.50;90.60;;;;;;1869516;76;21140;-83
2023/06/01 06:56:20;;;;;;;10.82;6.40;;;35.50;90.40;;;;;;1861216;76;21166;-84
2023/06/01 06:58:52;;;;;;;9.03;6.47;;;35.50;90.20;;;;;;1871568;76;21240;-86
2023/06/01 07:01:25;;;;;;;9.23;6.50;;;35.60;89.00;;;;;;1866395;76;21283;-85
2023/06/01 07:03:56;;;;;;;43.38;9.13;;;35.60;87.40;;;;;;1789329;79;21246;-84
2023/06/01 07:06:28;;;;;;;18.10;6.70;;;35.70;89.50;;;;;;1865190;76;21273;-85
2023/06/01 07:09:02;;;;;;;6.30;5.45;;;35.80;89.10;;;;;;1865116;76;21194;-85
2023/06/01 07:11:35;;;;;;;10.38;5.97;;;35.80;88.40;;;;;;1875093;76;21198;-83
2023/06/01 07:14:12;;;;;;;6.67;5.75;;;35.80;89.10;;;;;;1866376;76;21208;-82
2023/06/01 07:16:43;;;;;;;6.78;5.72;;;35.80;88.00;;;;;;1860177;76;21197;-82
2023/06/01 07:19:17;;;;;;;10.00;5.90;;;35.80;88.90;;;;;;1870973;76;21103;-84
2023/06/01 07:21:50;;;;;;;12.50;6.92;;;35.80;89.10;;;;;;1860292;76;21170;-84
2023/06/01 07:24:25;;;;;;;11.68;5.17;;;35.90;88.20;;;;;;1867334;76;21200;-84
2023/06/01 07:26:59;;;;;;;14.90;6.70;;;36.00;86.50;;;;;;1865073;76;21052;-84
2023/06/01 07:29:54;;;;;;;10.98;6.03;;;36.00;85.50;;;;;;1859264;76;22117;-82
2023/06/01 07:32:27;;;;;;;10.60;5.42;;;36.10;85.30;;;;;;1872426;76;21111;-82
2023/06/01 07:35:07;;;;;;;14.18;7.70;;;36.10;85.00;;;;;;1871998;76;21075;-83
2023/06/01 07:37:38;;;;;;;12.53;6.83;;;36.10;85.30;;;;;;1861326;76;21165;-82
2023/06/01 07:40:13;;;;;;;15.98;6.30;;;36.10;84.90;;;;;;1855735;76;21284;-83
2023/06/01 07:42:50;;;;;;;13.30;5.85;;;36.10;84.20;;;;;;1868014;76;21142;-83
2023/06/01 07:45:27;;;;;;;9.03;5.90;;;36.10;84.00;;;;;;1868805;76;21134;-82
2023/06/01 07:48:00;;;;;;;33.00;7.47;;;36.10;83.00;;;;;;1858287;76;21173;-84
2023/06/01 07:50:40;;;;;;;12.20;6.12;;;36.20;85.00;;;;;;1861977;76;21110;-84
2023/06/01 07:53:19;;;;;;;7.58;5.70;;;36.20;84.90;;;;;;1865326;76;21224;-84
2023/06/01 07:55:52;;;;;;;8.03;5.58;;;36.20;84.30;;;;;;1858817;76;21212;-84
2023/06/01 07:58:23;;;;;;;9.95;6.53;;;36.10;84.40;;;;;;1866585;76;21147;-84
2023/06/01 08:00:57;;;;;;;11.53;5.87;;;36.10;85.30;;;;;;1891704;75;21153;-84
2023/06/01 08:03:28;;;;;;;9.15;5.65;;;36.00;86.50;;;;;;1873123;76;21186;-84
2023/06/01 08:06:02;;;;;;;11.65;5.65;;;36.10;85.50;;;;;;1890429;73;21111;-84
2023/06/01 08:08:40;;;;;;;10.30;5.72;;;36.10;84.60;;;;;;1873284;76;21218;-84
2023/06/01 08:11:17;;;;;;;10.50;5.97;;;36.00;84.90;;;;;;1865839;75;21194;-85
2023/06/01 08:14:18;;;;;;;13.85;6.55;;;36.00;85.40;;;;;;1863661;75;21228;-80
2023/06/01 08:17:06;;;;;;;18.82;6.65;;;36.00;86.40;;;;;;1838624;76;21614;-76
2023/06/01 08:19:38;;;;;;;17.25;6.47;;;36.00;85.70;;;;;;1881245;75;21528;-80
2023/06/01 08:22:11;;;;;;;9.70;6.00;;;36.00;84.50;;;;;;1867060;76;21084;-77
2023/06/01 08:24:43;;;;;;;7.28;5.78;;;36.00;85.00;;;;;;1879922;75;21658;-76
2023/06/01 08:27:22;;;;;;;11.70;5.90;;;36.00;86.30;;;;;;1883998;76;21068;-80
2023/06/01 08:29:55;;;;;;;11.63;5.55;;;36.10;86.20;;;;;;1887423;75;21279;-80
2023/06/01 08:32:26;;;;;;;8.00;5.53;;;36.10;85.20;;;;;;1867258;76;21690;-81
2023/06/01 08:34:58;;;;;;;7.97;6.12;;;36.10;84.70;;;;;;1879918;75;21127;-78
2023/06/01 08:37:30;;;;;;;11.43;5.15;;;36.10;84.90;;;;;;1810174;79;21122;-79
2023/06/01 08:40:03;;;;;;;8.80;5.65;;;36.10;84.70;;;;;;1809802;78;21122;-79
2023/06/01 08:42:40;;;;;;;10.20;5.85;;;36.10;85.50;;;;;;1813255;78;21680;-80
2023/06/01 08:45:13;;;;;;;14.23;7.15;;;36.10;84.60;;;;;;1809902;77;21600;-80
2023/06/01 08:47:46;;;;;;;10.88;5.55;;;36.10;85.10;;;;;;1821936;78;21225;-80
2023/06/01 08:50:18;;;;;;;8.93;6.65;;;36.10;85.30;;;;;;1821331;78;21142;-78
2023/06/01 08:52:51;;;;;;;7.12;4.85;;;36.00;85.90;;;;;;1818793;78;21171;-79
2023/06/01 08:55:23;;;;;;;9.10;5.28;;;36.00;84.60;;;;;;1822167;78;21525;-79
2023/06/01 08:57:55;;;;;;;8.03;5.78;;;36.00;85.20;;;;;;1865215;75;21330;-79
2023/06/01 09:00:32;;;;;;;9.20;6.30;;;35.90;84.80;;;;;;1851810;75;21216;-80
2023/06/01 09:03:03;;;;;;;6.95;5.45;;;35.90;84.10;;;;;;1851868;75;21674;-79
2023/06/01 09:05:36;;;;;;;6.97;5.42;;;35.80;84.50;;;;;;1856402;77;21180;-81
2023/06/01 09:08:09;;;;;;;9.38;5.60;;;35.80;83.70;;;;;;1851554;76;21662;-79
2023/06/01 09:10:49;;;;;;;8.98;5.17;;;35.80;83.80;;;;;;1850103;75;21545;-80
2023/06/01 09:13:38;;;;;;;8.20;5.00;;;35.70;83.30;;;;;;1840400;77;21160;-78
2023/06/01 09:16:18;;;;;;;9.83;5.20;;;35.70;84.30;;;;;;1863665;74;21734;-79
2023/06/01 09:18:55;;;;;;;11.60;5.35;;;35.70;84.30;;;;;;1853039;75;21164;-81
2023/06/01 09:21:27;;;;;;;11.85;5.83;;;35.60;84.00;;;;;;1855873;76;21218;-79
2023/06/01 09:24:00;;;;;;;8.00;5.58;;;35.60;85.50;;;;;;1820437;78;21147;-79
2023/06/01 09:26:32;;;;;;;24.50;8.05;;;35.50;84.60;;;;;;1847784;77;21535;-79
2023/06/01 09:29:03;;;;;;;7.85;5.10;;;35.50;85.10;;;;;;1862979;75;21154;-79
2023/06/01 09:31:44;;;;;;;7.50;5.33;;;35.50;84.60;;;;;;1857311;76;21179;-82
2023/06/01 09:34:20;;;;;;;9.10;5.20;;;35.40;84.70;;;;;;1850340;77;21230;-84
2023/06/01 09:36:51;;;;;;;;;;;35.40;84.30;;;;;;1849247;77;21144;-85
2023/06/01 09:39:29;;;;;;;10.35;5.60;;;35.40;85.30;;;;;;1859383;77;20492;-81
2023/06/01 09:42:06;;;;;;;11.00;5.58;;;35.40;84.80;;;;;;1848750;76;21156;-79
2023/06/01 09:44:35;;;;;;;10.72;5.70;;;35.40;85.50;;;;;;1855950;77;21710;-80
2023/06/01 09:47:12;;;;;;;7.53;5.37;;;35.30;85.90;;;;;;1852039;75;21171;-81
2023/06/01 09:49:48;;;;;;;8.35;5.25;;;35.30;85.90;;;;;;1849345;77;21644;-80
2023/06/01 09:52:21;;;;;;;13.75;5.37;;;35.30;86.10;;;;;;1815851;78;21559;-78
2023/06/01 09:54:58;;;;;;;10.58;6.12;;;35.20;85.60;;;;;;1847936;77;21174;-78
2023/06/01 09:57:29;;;;;;;11.85;5.78;;;35.20;86.10;;;;;;1854877;75;21092;-82
2023/06/01 10:00:10;;;;;;;8.73;5.60;;;35.20;86.00;;;;;;1831629;76;21103;-83
2023/06/01 10:02:44;;;;;;;8.60;6.05;;;35.10;86.20;;;;;;1860609;76;21996;-79
2023/06/01 10:05:17;;;;;;;11.08;5.80;;;35.10;87.00;;;;;;1864387;76;21135;-79
2023/06/01 10:07:57;;;;;;;8.70;6.05;;;35.10;86.90;;;;;;1854544;75;21087;-78
2023/06/01 10:10:25;;;;;;;9.83;5.70;;;35.10;87.10;;;;;;1858051;76;21142;-82
2023/06/01 10:12:57;;;;;;;12.80;6.33;;;35.10;87.20;;;;;;1864214;76;21063;-81
2023/06/01 10:15:29;;;;;;;9.68;6.15;;;35.10;87.20;;;;;;1865800;75;21472;-81
2023/06/01 10:18:02;;;;;;;12.53;6.17;;;35.00;86.50;;;;;;1868097;75;21159;-80
2023/06/01 10:20:38;;;;;;;12.58;6.28;;;35.00;87.00;;;;;;1864424;75;21389;-80
2023/06/01 10:23:09;;;;;;;7.80;5.55;;;35.00;87.30;;;;;;1871358;76;21660;-78
2023/06/01 10:25:44;;;;;;;11.03;5.85;;;35.00;87.00;;;;;;1856032;76;21103;-78
2023/06/01 10:28:16;;;;;;;11.05;5.97;;;34.90;87.30;;;;;;1864899;76;21158;-80
2023/06/01 10:30:47;;;;;;;10.23;6.42;;;34.90;86.60;;;;;;1869719;75;21110;-77
2023/06/01 10:33:20;;;;;;;8.03;5.12;;;35.00;87.20;;;;;;1860628;76;22042;-78
2023/06/01 10:35:54;;;;;;;9.50;5.33;;;34.90;87.20;;;;;;1867058;76;21130;-80
2023/06/01 10:38:25;;;;;;;11.93;6.20;;;34.90;87.00;;;;;;1867862;76;21099;-80
2023/06/01 10:41:02;;;;;;;8.85;5.20;;;34.90;86.80;;;;;;1872058;75;21188;-80
2023/06/01 10:43:40;;;;;;;9.58;5.40;;;34.90;86.10;;;;;;1862728;76;21224;-78
2023/06/01 10:46:33;;;;;;;10.35;5.45;;;34.90;85.80;;;;;;1865227;76;21129;-79
2023/06/01 10:49:07;;;;;;;6.80;5.00;;;34.90;85.80;;;;;;1861299;76;21193;-78
2023/06/01 10:51:38;;;;;;;14.43;5.72;;;34.80;84.90;;;;;;1905715;75;21180;-78
2023/06/01 10:54:29;;;;;;;13.22;5.62;;;34.80;85.60;;;;;;1860036;76;21111;-80
2023/06/01 10:57:22;;;;;;;10.75;5.15;;;34.80;85.80;;;;;;1861674;76;21193;-80
2023/06/01 11:00:26;;;;;;;8.90;5.10;;;34.80;85.40;;;;;;1863986;74;21181;-80
2023/06/01 11:03:04;;;;;;;6.42;4.87;;;34.80;85.70;;;;;;1870112;76;21207;-79
2023/06/01 11:05:38;;;;;;;7.08;4.85;;;34.70;85.30;;;;;;1877469;74;21097;-79
2023/06/01 11:08:22;;;;;;;8.50;4.80;;;34.70;85.50;;;;;;1870410;74;21260;-82
2023/06/01 11:10:56;;;;;;;7.37;5.03;;;34.70;86.00;;;;;;1863871;74;21170;-79
2023/06/01 11:13:29;;;;;;;8.48;5.33;;;34.60;86.70;;;;;;1821446;77;21427;-78
2023/06/01 11:16:18;;;;;;;7.70;5.47;;;34.60;87.10;;;;;;1815706;78;21215;-79
2023/06/01 11:18:57;;;;;;;8.88;5.53;;;34.60;86.90;;;;;;1820659;78;21152;-80
2023/06/01 11:21:26;;;;;;;11.08;5.92;;;34.50;87.00;;;;;;1866074;75;21654;-79
2023/06/01 11:23:58;;;;;;;10.35;5.70;;;34.50;87.00;;;;;;1872721;74;21155;-80
2023/06/01 11:26:37;;;;;;;9.58;5.42;;;34.40;87.30;;;;;;1887318;75;21119;-82
2023/06/01 11:29:20;;;;;;;7.40;5.42;;;34.40;87.70;;;;;;1876191;76;21123;-81
2023/06/01 11:31:57;;;;;;;13.68;5.85;;;34.40;88.10;;;;;;1879269;75;21135;-84
2023/06/01 11:34:37;;;;;;;10.88;6.22;;;34.40;88.40;;;;;;1867741;75;21623;-80
2023/06/01 11:37:08;;;;;;;14.18;6.42;;;34.30;88.50;;;;;;1875638;76;21704;-82
2023/06/01 11:39:40;;;;;;;9.38;6.10;;;34.30;88.90;;;;;;1884410;74;21202;-80
2023/06/01 11:42:20;;;;;;;7.83;5.95;;;34.20;88.90;;;;;;1865085;76;21159;-84
2023/06/01 11:44:59;;;;;;;9.70;6.10;;;34.20;89.30;;;;;;1882417;75;21210;-79
2023/06/01 11:47:31;;;;;;;11.30;6.20;;;34.20;89.90;;;;;;1865276;76;21088;-79
2023/06/01 11:50:06;;;;;;;12.85;6.12;;;34.20;90.00;;;;;;1876536;74;21127;-79
2023/06/01 11:52:37;;;;;;;12.65;6.47;;;34.10;90.00;;;;;;1863673;76;21156;-82
2023/06/01 11:55:11;;;;;;;10.80;6.05;;;34.10;90.10;;;;;;1876079;75;21174;-81
2023/06/01 11:57:45;;;;;;;10.00;6.47;;;34.10;90.20;;;;;;1862574;76;21616;-80
2023/06/01 12:00:19;;;;;;;13.62;6.12;;;34.10;90.20;;;;;;1870286;75;22004;-77
2023/06/01 12:02:52;;;;;;;11.95;6.90;;;34.00;90.30;;;;;;1850838;75;21226;-78
2023/06/01 12:05:27;;;;;;;12.35;7.45;;;34.00;90.40;;;;;;1854115;75;21686;-80
2023/06/01 12:07:58;;;;;;;16.48;7.25;;;33.90;90.50;;;;;;1855736;77;21054;-78
2023/06/01 12:10:32;;;;;;;10.53;6.70;;;34.00;90.70;;;;;;1856118;77;21166;-77
2023/06/01 12:13:04;;;;;;;14.18;7.35;;;33.90;90.70;;;;;;1849239;75;21167;-80
2023/06/01 12:15:35;;;;;;;13.13;6.78;;;33.90;90.70;;;;;;1853454;77;21340;-79
2023/06/01 12:18:08;;;;;;;10.82;7.65;;;33.80;90.80;;;;;;1847931;76;22002;-80
2023/06/01 12:20:45;;;;;;;10.70;7.90;;;33.90;90.90;;;;;;1852644;75;21636;-81
2023/06/01 12:23:23;;;;;;;12.58;7.10;;;33.80;90.90;;;;;;1850333;75;21112;-78
2023/06/01 12:25:53;;;;;;;14.03;8.13;;;33.80;91.00;;;;;;1848377;77;21155;-79
2023/06/01 12:28:35;;;;;;;12.75;9.13;;;33.80;91.20;;;;;;1851104;77;21620;-82
2023/06/01 12:31:16;;;;;;;;;;;33.80;91.20;;;;;;1855345;77;21218;-77
2023/06/01 12:33:51;;;;;;;19.15;8.75;;;33.80;91.10;;;;;;1855030;75;20216;-78
2023/06/01 12:36:37;;;;;;;21.27;8.48;;;33.70;91.20;;;;;;1845590;77;21083;-78
2023/06/01 12:39:08;;;;;;;17.23;8.35;;;33.70;91.20;;;;;;1848642;77;21128;-79
2023/06/01 12:41:51;;;;;;;12.50;8.03;;;33.70;91.20;;;;;;1858354;77;21182;-80
2023/06/01 12:44:23;;;;;;;12.78;8.68;;;33.70;91.30;;;;;;1852693;75;21153;-77
2023/06/01 12:47:00;;;;;;;14.05;7.92;;;33.70;91.30;;;;;;1846876;76;21171;-81
2023/06/01 12:49:31;;;;;;;10.65;8.08;;;33.70;91.40;;;;;;1855295;77;21143;-80
2023/06/01 12:52:12;;;;;;;15.65;8.83;;;33.70;91.30;;;;;;1851009;75;21136;-80
2023/06/01 12:54:43;;;;;;;13.48;8.33;;;33.60;91.30;;;;;;1856833;77;21145;-80
2023/06/01 12:57:17;;;;;;;12.73;7.55;;;33.70;91.30;;;;;;1857980;77;21139;-78
2023/06/01 12:59:48;;;;;;;13.85;7.65;;;33.70;91.40;;;;;;1856484;75;21151;-81
2023/06/01 13:02:20;;;;;;;12.90;7.35;;;33.60;91.40;;;;;;1851292;75;21169;-82
2023/06/01 13:04:53;;;;;;;13.15;8.13;;;33.60;91.60;;;;;;1853019;77;21257;-79
2023/06/01 13:07:24;;;;;;;17.17;8.40;;;33.60;91.50;;;;;;1795929;78;21754;-80
2023/06/01 13:09:58;;;;;;;13.90;7.78;;;33.50;91.50;;;;;;1853096;77;21129;-79
2023/06/01 13:12:29;;;;;;;11.75;7.70;;;33.50;91.60;;;;;;1855736;75;21604;-80
2023/06/01 13:15:03;;;;;;;10.25;7.83;;;33.50;91.60;;;;;;1852413;77;21577;-79
2023/06/01 13:17:36;;;;;;;14.13;8.45;;;33.50;91.70;;;;;;1852986;77;21206;-81
2023/06/01 13:20:10;;;;;;;14.33;8.35;;;33.50;91.70;;;;;;1846434;77;21128;-82
2023/06/01 13:22:42;;;;;;;14.83;8.15;;;33.40;91.80;;;;;;1852994;75;21187;-82
2023/06/01 13:25:14;;;;;;;12.65;8.28;;;33.40;91.90;;;;;;1850184;77;21418;-82